This is the latest recevied weather packets stored in our database for station/object YO8RXT-3. If no packets are shown the sender has not sent any weather packets the latest 10 day(s).
| Time | Temp. | Humidity | Pressure | Rain* | Wind** | Luminosity | Snow |
|---|---|---|---|---|---|---|---|
| 1777577702 | 7.22° C | 39% | 1026 hPa | - | - | - | - |
| 1777575903 | 6.11° C | 46% | 1026 hPa | - | - | - | - |
| 1777574103 | 5° C | 49% | 1025 hPa | - | - | - | - |
| 1777572302 | 6.11° C | 49% | 1025 hPa | - | - | - | - |
| 1777570503 | 6.11° C | 49% | 1025 hPa | - | - | - | - |
| 1777568702 | 7.78° C | 43% | 1025 hPa | - | - | - | - |
| 1777566903 | 8.89° C | 40% | 1025 hPa | - | - | - | - |
| 1777565103 | 11.11° C | 32% | 1024 hPa | - | - | - | - |
| 1777563304 | 11.11° C | 30% | 1024 hPa | - | - | - | - |
| 1777561504 | 11.11° C | 30% | 1024 hPa | - | - | - | - |
| 1777559702 | 11.11° C | 30% | 1025 hPa | - | - | - | - |
| 1777557902 | 11.11° C | 30% | 1025 hPa | - | - | - | - |
| 1777556103 | 12.22° C | 30% | 1025 hPa | - | - | - | - |
| 1777554302 | 11.11° C | 32% | 1025 hPa | - | - | - | - |
| 1777552502 | 12.22° C | 28% | 1025 hPa | - | - | - | - |
| 1777550703 | 11.11° C | 35% | 1025 hPa | - | - | - | - |
| 1777548903 | 11.11° C | 32% | 1025 hPa | - | - | - | - |
| 1777547103 | 11.11° C | 32% | 1025 hPa | - | - | - | - |
| 1777545303 | 12.22° C | 33% | 1026 hPa | - | - | - | - |
| 1777543503 | 11.11° C | 35% | 1026 hPa | - | - | - | - |
| 1777541703 | 10° C | 35% | 1026 hPa | - | - | - | - |
| 1777539902 | 11.11° C | 38% | 1026 hPa | - | - | - | - |
| 1777538102 | 10° C | 43% | 1026 hPa | - | - | - | - |
| 1777536302 | 10° C | 47% | 1026 hPa | - | - | - | - |
| 1777534502 | 7.78° C | 46% | 1026 hPa | - | - | - | - |
* Rain since midnight (hover to see other rain measurements)
** Current wind speed in m/s (hover to see current wind gust speed)